createdAt,value
2017-12-13T00:00:50.237Z,96.00
2017-12-13T00:03:55.411Z,96.10
2017-12-13T00:07:01.854Z,96.10
2017-12-13T00:10:08.290Z,95.80
2017-12-13T00:13:13.463Z,95.80
2017-12-13T00:16:19.902Z,95.50
2017-12-13T00:19:25.745Z,95.40
2017-12-13T00:22:31.568Z,95.30
2017-12-13T00:25:37.010Z,95.40
2017-12-13T00:28:43.442Z,95.30
2017-12-13T00:31:48.318Z,95.30
2017-12-13T00:34:53.770Z,95.70
2017-12-13T00:37:59.342Z,95.30
2017-12-13T00:41:04.061Z,95.20
2017-12-13T00:44:09.326Z,95.30
2017-12-13T00:47:14.881Z,95.40
2017-12-13T00:50:19.984Z,95.40
2017-12-13T00:53:25.218Z,95.40
2017-12-13T00:56:31.033Z,95.40
2017-12-13T00:59:35.810Z,95.40
2017-12-13T01:02:40.894Z,95.30
2017-12-13T01:05:46.049Z,95.30
2017-12-13T01:08:51.951Z,95.00
2017-12-13T01:11:58.543Z,94.80
2017-12-13T01:15:04.634Z,94.70
2017-12-13T01:18:10.338Z,94.70
2017-12-13T01:21:15.139Z,94.80
2017-12-13T01:24:20.850Z,94.80
2017-12-13T01:27:25.941Z,94.80
2017-12-13T01:30:31.281Z,94.80
2017-12-13T01:33:37.377Z,94.70
2017-12-13T01:36:43.581Z,94.40
2017-12-13T01:39:49.136Z,94.30
2017-12-13T01:42:53.910Z,94.70
2017-12-13T01:45:58.722Z,94.70
2017-12-13T01:49:03.869Z,94.50
2017-12-13T01:52:08.679Z,94.40
2017-12-13T01:55:14.190Z,94.50
2017-12-13T01:58:19.627Z,94.40
2017-12-13T02:01:24.954Z,94.20
2017-12-13T02:04:30.737Z,94.50
2017-12-13T02:07:35.970Z,94.50
2017-12-13T02:10:41.846Z,94.80
2017-12-13T02:13:48.115Z,94.90
2017-12-13T02:16:53.114Z,94.90
2017-12-13T02:19:58.568Z,94.80
2017-12-13T02:23:04.298Z,95.00
2017-12-13T02:26:09.770Z,95.00
2017-12-13T02:29:14.819Z,94.90
2017-12-13T02:32:19.789Z,95.10
2017-12-13T02:35:26.374Z,95.10
2017-12-13T02:38:31.982Z,95.20
2017-12-13T02:41:37.691Z,95.10
2017-12-13T02:44:43.090Z,95.00
2017-12-13T02:47:49.217Z,94.60
2017-12-13T02:50:55.121Z,94.50
2017-12-13T02:54:00.710Z,94.50
2017-12-13T02:57:06.110Z,94.10
2017-12-13T03:00:11.811Z,94.20
2017-12-13T03:03:16.770Z,94.30
2017-12-13T03:06:22.743Z,94.40
2017-12-13T03:09:28.822Z,94.60
2017-12-13T03:12:35.632Z,94.70
2017-12-13T03:15:40.610Z,94.70
2017-12-13T03:18:45.835Z,95.00
2017-12-13T03:21:51.453Z,94.90
2017-12-13T03:24:57.202Z,95.00
2017-12-13T03:28:02.766Z,95.00
2017-12-13T03:31:07.667Z,95.00
2017-12-13T03:34:13.990Z,94.80
2017-12-13T03:37:20.030Z,94.90
2017-12-13T03:40:25.314Z,94.80
2017-12-13T03:43:30.950Z,95.20
2017-12-13T03:46:36.498Z,95.00
2017-12-13T03:49:41.426Z,95.10
2017-12-13T03:52:46.291Z,95.50
2017-12-13T03:55:51.650Z,95.10
2017-12-13T03:58:57.675Z,95.00
2017-12-13T04:02:03.058Z,95.00
2017-12-13T04:05:09.148Z,94.70
2017-12-13T04:08:14.918Z,94.40
2017-12-13T04:11:19.978Z,94.30
2017-12-13T04:14:26.050Z,94.30
2017-12-13T04:17:32.053Z,94.20
2017-12-13T04:20:36.873Z,94.20
2017-12-13T04:23:42.838Z,93.80
2017-12-13T04:26:48.685Z,94.00
2017-12-13T04:29:54.825Z,93.70
2017-12-13T04:33:00.530Z,93.60
2017-12-13T04:36:05.972Z,93.60
2017-12-13T04:39:11.775Z,93.60
2017-12-13T04:42:17.278Z,93.60
2017-12-13T04:45:23.038Z,93.80
2017-12-13T04:48:28.538Z,93.70
2017-12-13T04:51:33.779Z,93.70
2017-12-13T04:54:39.680Z,93.70
2017-12-13T04:57:44.873Z,93.70
2017-12-13T05:00:50.267Z,93.70
2017-12-13T05:03:56.537Z,94.00
2017-12-13T05:07:01.367Z,94.00
2017-12-13T05:10:07.195Z,94.30
2017-12-13T05:13:12.430Z,93.90
2017-12-13T05:16:17.526Z,93.80
2017-12-13T05:19:23.670Z,93.50
2017-12-13T05:22:30.074Z,93.50
2017-12-13T05:25:35.283Z,93.50
2017-12-13T05:28:41.879Z,93.60
2017-12-13T05:31:46.551Z,93.60
2017-12-13T05:34:52.114Z,93.70
2017-12-13T05:37:57.734Z,93.80
2017-12-13T05:41:03.458Z,93.80
2017-12-13T05:44:08.346Z,93.80
2017-12-13T05:47:13.578Z,93.70
2017-12-13T05:50:19.201Z,93.40
2017-12-13T05:53:26.746Z,93.60
2017-12-13T05:56:31.954Z,93.60
2017-12-13T05:59:37.998Z,93.60
2017-12-13T06:02:42.874Z,93.50
2017-12-13T06:05:49.369Z,93.50
2017-12-13T06:08:54.705Z,93.50
2017-12-13T06:11:59.570Z,93.60
2017-12-13T06:15:04.255Z,93.40
2017-12-13T06:18:09.699Z,93.50
2017-12-13T06:21:14.611Z,93.50
2017-12-13T06:24:20.343Z,93.40
2017-12-13T06:27:25.655Z,93.30
2017-12-13T06:30:31.530Z,93.50
2017-12-13T06:33:36.808Z,93.20
2017-12-13T06:36:42.142Z,93.10
2017-12-13T06:39:47.754Z,93.00
2017-12-13T06:42:52.759Z,93.00
2017-12-13T06:45:57.838Z,93.00
2017-12-13T06:49:03.319Z,92.70
2017-12-13T06:52:09.295Z,92.50
2017-12-13T06:55:15.602Z,92.30
2017-12-13T06:58:21.083Z,92.30
2017-12-13T07:01:26.666Z,92.00
2017-12-13T07:04:32.245Z,91.70
2017-12-13T07:07:38.482Z,91.60
2017-12-13T07:10:43.738Z,91.60
2017-12-13T07:13:49.554Z,91.60
2017-12-13T07:16:55.062Z,91.20
2017-12-13T07:20:00.011Z,91.10
2017-12-13T07:23:06.015Z,91.30
2017-12-13T07:26:11.810Z,90.90
2017-12-13T07:29:18.216Z,90.90
2017-12-13T07:32:24.419Z,90.60
2017-12-13T07:35:30.523Z,90.70
2017-12-13T07:38:35.254Z,90.60
2017-12-13T07:41:41.376Z,90.40
2017-12-13T07:44:46.952Z,90.40
2017-12-13T07:47:52.366Z,90.10
2017-12-13T07:50:57.769Z,89.60
2017-12-13T07:54:03.574Z,89.70
2017-12-13T07:57:08.558Z,89.80
2017-12-13T08:00:13.558Z,89.60
2017-12-13T08:03:18.583Z,89.60
2017-12-13T08:06:24.406Z,88.90
2017-12-13T08:09:29.466Z,88.90
2017-12-13T08:12:35.262Z,87.70
2017-12-13T08:15:41.162Z,87.80
2017-12-13T08:18:46.194Z,87.70
2017-12-13T08:21:51.661Z,87.00
2017-12-13T08:24:56.818Z,86.90
2017-12-13T08:28:01.884Z,86.40
2017-12-13T08:31:07.479Z,85.40
2017-12-13T08:34:12.207Z,84.60
2017-12-13T08:37:17.207Z,84.30
2017-12-13T08:40:23.630Z,83.00
2017-12-13T08:43:28.778Z,83.70
2017-12-13T08:46:34.171Z,82.30
2017-12-13T08:49:39.397Z,82.40
2017-12-13T08:52:44.838Z,82.40
2017-12-13T08:55:50.579Z,80.80
2017-12-13T08:58:56.273Z,81.50
2017-12-13T09:02:01.537Z,81.40
2017-12-13T09:05:07.785Z,79.90
2017-12-13T09:08:12.612Z,79.90
2017-12-13T09:11:18.106Z,78.90
2017-12-13T09:14:23.905Z,78.30
2017-12-13T09:17:30.209Z,77.40
2017-12-13T09:20:36.154Z,77.90
2017-12-13T09:23:41.350Z,77.90
2017-12-13T09:26:47.550Z,76.50
2017-12-13T09:29:53.520Z,76.90
2017-12-13T09:32:58.854Z,76.90
2017-12-13T09:36:04.782Z,76.70
2017-12-13T09:39:09.983Z,76.90
2017-12-13T09:42:16.158Z,74.60
2017-12-13T09:45:21.985Z,77.50
2017-12-13T09:48:28.430Z,75.60
2017-12-13T09:51:33.537Z,75.60
2017-12-13T09:54:39.254Z,74.10
2017-12-13T09:57:44.854Z,74.20
2017-12-13T10:00:50.990Z,73.10
2017-12-13T10:03:56.231Z,73.10
2017-12-13T10:07:01.298Z,72.70
2017-12-13T10:10:07.066Z,72.40
2017-12-13T10:13:12.142Z,72.30
2017-12-13T10:16:17.919Z,72.20
2017-12-13T10:19:22.750Z,72.20
2017-12-13T10:22:28.878Z,69.80
2017-12-13T10:25:34.657Z,69.80
2017-12-13T10:28:39.670Z,68.20
2017-12-13T10:31:45.458Z,67.40
2017-12-13T10:34:50.506Z,69.30
2017-12-13T10:37:55.687Z,68.50
2017-12-13T10:41:01.483Z,67.90
2017-12-13T10:44:07.092Z,66.40
2017-12-13T10:47:12.968Z,66.90
2017-12-13T10:50:19.101Z,68.00
2017-12-13T10:53:24.827Z,68.00
2017-12-13T10:56:30.143Z,66.00
2017-12-13T10:59:35.631Z,65.60
2017-12-13T11:02:41.245Z,65.60
2017-12-13T11:05:46.483Z,65.60
2017-12-13T11:08:52.742Z,65.20
2017-12-13T11:11:58.830Z,66.90
2017-12-13T11:15:05.210Z,66.40
2017-12-13T11:18:10.814Z,66.10
2017-12-13T11:21:16.622Z,65.70
2017-12-13T11:24:22.251Z,66.00
2017-12-13T11:27:27.107Z,64.50
2017-12-13T11:30:33.561Z,65.40
2017-12-13T11:33:38.825Z,65.40
2017-12-13T11:36:44.098Z,65.80
2017-12-13T11:39:50.356Z,64.50
2017-12-13T11:42:55.327Z,64.50
2017-12-13T11:46:00.730Z,64.50
2017-12-13T11:49:06.575Z,63.20
2017-12-13T11:52:11.707Z,63.20
2017-12-13T11:55:17.074Z,63.40
2017-12-13T11:58:23.382Z,61.60
2017-12-13T12:01:29.254Z,62.30
2017-12-13T12:04:34.864Z,62.20
2017-12-13T12:07:40.414Z,61.80
2017-12-13T12:10:46.486Z,62.90
2017-12-13T12:13:51.322Z,62.90
2017-12-13T12:16:56.969Z,62.70
2017-12-13T12:20:02.062Z,62.70
2017-12-13T12:23:08.251Z,62.50
2017-12-13T12:26:14.010Z,62.30
2017-12-13T12:29:19.174Z,62.10
2017-12-13T12:32:24.563Z,63.10
2017-12-13T12:35:30.662Z,62.70
2017-12-13T12:38:36.242Z,62.60
2017-12-13T12:41:42.666Z,64.80
2017-12-13T12:44:48.319Z,64.50
2017-12-13T12:47:53.339Z,64.50
2017-12-13T12:50:58.866Z,64.10
2017-12-13T12:54:03.794Z,63.70
2017-12-13T12:57:09.297Z,64.40
2017-12-13T13:00:15.026Z,63.50
2017-12-13T13:03:21.198Z,63.50
2017-12-13T13:06:26.913Z,63.40
2017-12-13T13:09:32.171Z,63.60
2017-12-13T13:12:36.818Z,63.80
2017-12-13T13:15:43.835Z,65.00
2017-12-13T13:18:50.238Z,65.70
2017-12-13T13:21:56.112Z,68.10
2017-12-13T13:25:01.613Z,68.10
2017-12-13T13:28:07.534Z,71.10
2017-12-13T13:31:12.898Z,72.90
2017-12-13T13:34:18.458Z,77.60
2017-12-13T13:37:24.478Z,77.70
2017-12-13T13:40:29.244Z,77.70
2017-12-13T13:43:35.187Z,77.80
2017-12-13T13:46:41.021Z,78.40
2017-12-13T13:49:46.220Z,78.30
2017-12-13T13:52:51.630Z,80.30
2017-12-13T13:55:57.118Z,83.80
2017-12-13T13:59:03.160Z,86.60
2017-12-13T14:02:09.322Z,89.10
2017-12-13T14:05:14.402Z,89.10
2017-12-13T14:08:19.222Z,90.40
2017-12-13T14:11:32.599Z,90.70
2017-12-13T14:14:40.352Z,92.00
2017-12-13T14:17:46.106Z,92.00
2017-12-13T14:20:52.008Z,92.00
2017-12-13T14:23:56.895Z,92.30
2017-12-13T14:27:03.250Z,92.60
2017-12-13T14:30:09.041Z,93.00
2017-12-13T14:33:14.337Z,93.00
2017-12-13T14:36:19.442Z,93.10
2017-12-13T14:39:25.010Z,93.40
2017-12-13T14:42:30.251Z,93.40
2017-12-13T14:45:35.850Z,93.60
2017-12-13T14:48:41.354Z,93.90
2017-12-13T14:51:46.858Z,93.70
2017-12-13T14:54:52.686Z,93.90
2017-12-13T14:57:57.846Z,93.90
2017-12-13T15:01:03.665Z,94.10
2017-12-13T15:04:09.530Z,94.10
2017-12-13T15:07:14.477Z,94.10
2017-12-13T15:10:20.706Z,94.50
2017-12-13T15:13:26.462Z,94.70
2017-12-13T15:16:32.158Z,94.40
2017-12-13T15:19:37.033Z,94.40
2017-12-13T15:22:43.502Z,94.40
2017-12-13T15:25:48.373Z,94.40
2017-12-13T15:28:53.546Z,94.40
2017-12-13T15:31:58.657Z,94.20
2017-12-13T15:35:03.586Z,94.40
2017-12-13T15:38:08.476Z,94.60
2017-12-13T15:41:13.358Z,94.40
2017-12-13T15:44:19.022Z,94.50
2017-12-13T15:47:24.486Z,94.50
2017-12-13T15:50:29.295Z,94.50
2017-12-13T15:53:34.615Z,94.40
2017-12-13T15:56:39.723Z,94.50
2017-12-13T15:59:44.973Z,94.40
2017-12-13T16:02:51.931Z,94.40
2017-12-13T16:05:57.372Z,94.30
2017-12-13T16:09:02.998Z,94.50
2017-12-13T16:12:07.936Z,94.50
2017-12-13T16:15:13.313Z,94.60
2017-12-13T16:18:18.828Z,94.60
2017-12-13T16:21:24.475Z,94.50
2017-12-13T16:24:30.749Z,94.90
2017-12-13T16:27:36.962Z,95.00
2017-12-13T16:30:42.578Z,95.00
2017-12-13T16:33:48.065Z,94.90
2017-12-13T16:36:54.310Z,95.20
2017-12-13T16:40:00.130Z,95.30
2017-12-13T16:43:06.450Z,95.10
2017-12-13T16:46:11.902Z,95.10
2017-12-13T16:49:17.290Z,95.20
2017-12-13T16:52:22.104Z,95.30
2017-12-13T16:55:26.902Z,95.30
2017-12-13T16:58:32.362Z,95.70
2017-12-13T17:01:37.522Z,95.40
2017-12-13T17:04:42.994Z,95.20
2017-12-13T17:07:48.686Z,95.50
2017-12-13T17:10:54.703Z,95.50
2017-12-13T17:14:00.506Z,95.50
2017-12-13T17:17:06.472Z,95.80
2017-12-13T17:20:11.626Z,95.70
2017-12-13T17:23:17.067Z,95.90
2017-12-13T17:26:22.718Z,95.80
2017-12-13T17:29:27.906Z,95.70
2017-12-13T17:32:33.162Z,95.80
2017-12-13T17:35:39.359Z,95.80
2017-12-13T17:38:45.418Z,95.90
2017-12-13T17:41:50.648Z,95.90
2017-12-13T17:44:56.466Z,95.70
2017-12-13T17:48:03.102Z,95.70
2017-12-13T17:51:08.619Z,95.70
2017-12-13T17:54:13.879Z,95.60
2017-12-13T17:57:19.627Z,95.60
2017-12-13T18:00:24.665Z,95.60
2017-12-13T18:03:30.397Z,95.70
2017-12-13T18:06:36.456Z,95.70
2017-12-13T18:09:42.354Z,95.60
2017-12-13T18:12:47.927Z,95.60
2017-12-13T18:15:53.474Z,95.60
2017-12-13T18:18:59.730Z,95.60
2017-12-13T18:22:04.722Z,95.60
2017-12-13T18:25:10.059Z,95.50
2017-12-13T18:28:16.247Z,95.70
2017-12-13T18:31:22.645Z,95.50
2017-12-13T18:34:28.078Z,95.70
2017-12-13T18:37:33.898Z,95.70
2017-12-13T18:40:39.721Z,95.80
2017-12-13T18:43:45.863Z,95.40
2017-12-13T18:46:51.011Z,95.30
2017-12-13T18:49:57.480Z,95.40
2017-12-13T18:53:02.610Z,95.40
2017-12-13T18:56:07.953Z,95.40
2017-12-13T18:59:12.899Z,95.50
2017-12-13T19:02:18.301Z,95.20
2017-12-13T19:05:23.874Z,95.30
2017-12-13T19:08:29.474Z,95.10
2017-12-13T19:11:34.906Z,95.10
2017-12-13T19:14:40.456Z,95.40
2017-12-13T19:17:45.313Z,95.40
2017-12-13T19:20:50.744Z,95.30
2017-12-13T19:23:55.991Z,95.50
2017-12-13T19:27:00.933Z,95.60
2017-12-13T19:30:06.098Z,95.70
2017-12-13T19:33:11.694Z,95.80
2017-12-13T19:36:17.595Z,96.00
2017-12-13T19:39:23.094Z,95.80
2017-12-13T19:42:29.016Z,95.70
2017-12-13T19:45:34.610Z,95.50
2017-12-13T19:48:39.597Z,95.50
2017-12-13T19:51:44.489Z,95.50
2017-12-13T19:54:49.702Z,95.50
2017-12-13T19:57:56.179Z,95.40
2017-12-13T20:01:01.610Z,95.30
2017-12-13T20:04:06.549Z,95.30
2017-12-13T20:07:11.637Z,95.30
2017-12-13T20:10:17.006Z,95.40
2017-12-13T20:13:23.305Z,95.50
2017-12-13T20:16:28.252Z,95.50
2017-12-13T20:19:33.117Z,95.60
2017-12-13T20:22:39.330Z,95.30
2017-12-13T20:25:45.085Z,95.30
2017-12-13T20:28:50.449Z,95.20
2017-12-13T20:31:56.040Z,95.40
2017-12-13T20:35:01.174Z,95.30
2017-12-13T20:38:06.606Z,95.40
2017-12-13T20:41:12.207Z,95.40
2017-12-13T20:44:18.482Z,95.40
2017-12-13T20:47:24.009Z,95.40
2017-12-13T20:50:29.365Z,95.20
2017-12-13T20:53:35.381Z,95.20
2017-12-13T20:56:41.902Z,95.40
2017-12-13T20:59:46.951Z,95.40
2017-12-13T21:02:52.721Z,95.60
2017-12-13T21:05:58.973Z,95.60
2017-12-13T21:09:05.114Z,95.50
2017-12-13T21:12:10.297Z,95.50
2017-12-13T21:15:15.424Z,95.80
2017-12-13T21:18:21.806Z,95.70
2017-12-13T21:21:27.066Z,95.70
2017-12-13T21:24:31.934Z,95.80
2017-12-13T21:27:37.286Z,96.00
2017-12-13T21:30:42.733Z,96.10
2017-12-13T21:33:47.906Z,96.10
2017-12-13T21:36:53.993Z,96.30
2017-12-13T21:39:59.956Z,96.40
2017-12-13T21:43:05.719Z,96.40
2017-12-13T21:46:11.810Z,96.50
2017-12-13T21:49:17.406Z,96.50
2017-12-13T21:52:22.750Z,96.20
2017-12-13T21:55:28.250Z,96.40
2017-12-13T21:58:34.622Z,96.50
2017-12-13T22:01:40.175Z,96.50
2017-12-13T22:04:45.810Z,96.50
2017-12-13T22:07:50.758Z,96.50
2017-12-13T22:10:56.818Z,96.80
2017-12-13T22:14:02.522Z,96.80
2017-12-13T22:17:07.851Z,96.80
2017-12-13T22:20:13.724Z,97.00
2017-12-13T22:23:18.514Z,96.90
2017-12-13T22:26:24.707Z,96.90
2017-12-13T22:29:29.682Z,96.90
2017-12-13T22:32:34.535Z,97.40
2017-12-13T22:35:39.707Z,97.20
2017-12-13T22:38:44.642Z,97.20
2017-12-13T22:41:50.958Z,97.10
2017-12-13T22:44:57.049Z,97.20
2017-12-13T22:48:02.422Z,97.10
2017-12-13T22:51:07.486Z,97.20
2017-12-13T22:54:13.417Z,97.00
2017-12-13T22:57:18.394Z,97.00
2017-12-13T23:00:23.432Z,96.90
2017-12-13T23:03:28.561Z,97.10
2017-12-13T23:06:34.427Z,97.10
2017-12-13T23:09:40.682Z,97.10
2017-12-13T23:12:46.754Z,97.30
2017-12-13T23:15:53.026Z,97.20
2017-12-13T23:18:58.330Z,97.20
2017-12-13T23:22:03.814Z,97.40
2017-12-13T23:25:09.498Z,97.50
2017-12-13T23:28:15.506Z,97.60
2017-12-13T23:31:21.407Z,97.70
2017-12-13T23:34:27.750Z,97.70
2017-12-13T23:37:32.730Z,97.70
2017-12-13T23:40:37.958Z,97.60
2017-12-13T23:43:42.698Z,97.60
2017-12-13T23:46:49.098Z,97.70
2017-12-13T23:49:54.862Z,97.90
2017-12-13T23:53:00.602Z,97.90
2017-12-13T23:56:06.042Z,97.90
2017-12-13T23:59:12.330Z,98.00
